createdAt,value
2023-01-10T00:01:41.671Z,96407.13
2023-01-10T00:04:08.944Z,96405.81
2023-01-10T00:06:36.198Z,96404.25
2023-01-10T00:09:03.915Z,96409.47
2023-01-10T00:11:50.196Z,96417.09
2023-01-10T00:14:17.573Z,96416.81
2023-01-10T00:16:44.825Z,96417.63
2023-01-10T00:19:12.093Z,96419.97
2023-01-10T00:21:39.881Z,96417.38
2023-01-10T00:24:19.668Z,96425.00
2023-01-10T00:26:51.379Z,96426.56
2023-01-10T00:29:35.338Z,96424.47
2023-01-10T00:32:02.755Z,96416.06
2023-01-10T00:34:31.190Z,96424.75
2023-01-10T00:36:58.393Z,96421.31
2023-01-10T00:39:27.699Z,96421.59
2023-01-10T00:42:13.633Z,96425.81
2023-01-10T00:44:40.942Z,96427.34
2023-01-10T00:47:08.226Z,96432.34
2023-01-10T00:49:35.405Z,96435.75
2023-01-10T00:52:02.728Z,96435.22
2023-01-10T00:54:29.921Z,96440.75
2023-01-10T00:56:57.291Z,96433.38
2023-01-10T00:59:24.920Z,96439.41
2023-01-10T01:01:52.665Z,96444.19
2023-01-10T01:04:20.008Z,96439.69
2023-01-10T01:06:49.040Z,96443.88
2023-01-10T01:09:16.804Z,96445.72
2023-01-10T01:11:44.012Z,96449.13
2023-01-10T01:14:11.365Z,96454.38
2023-01-10T01:16:38.635Z,96452.50
2023-01-10T01:19:05.946Z,96456.47
2023-01-10T01:21:33.972Z,96455.69
2023-01-10T01:24:01.273Z,96450.44
2023-01-10T01:26:28.633Z,96456.47
2023-01-10T01:28:56.327Z,96453.84
2023-01-10T01:31:23.631Z,96460.94
2023-01-10T01:33:51.782Z,96455.13
2023-01-10T01:36:20.148Z,96453.06
2023-01-10T01:38:47.399Z,96463.81
2023-01-10T01:41:33.360Z,96459.34
2023-01-10T01:44:10.641Z,96462.97
2023-01-10T01:46:39.410Z,96469.81
2023-01-10T01:49:15.574Z,96466.97
2023-01-10T01:51:45.916Z,96461.19
2023-01-10T01:54:14.372Z,96467.97
2023-01-10T01:56:55.995Z,96472.66
2023-01-10T01:59:34.018Z,96459.06
2023-01-10T02:02:14.775Z,96468.78
2023-01-10T02:05:12.785Z,96478.94
2023-01-10T02:07:45.613Z,96471.91
2023-01-10T02:10:30.218Z,96469.03
2023-01-10T02:13:04.001Z,96479.78
2023-01-10T02:15:31.536Z,96485.56
2023-01-10T02:18:02.339Z,96484.47
2023-01-10T02:20:54.000Z,96485.78
2023-01-10T02:24:06.784Z,96494.47
2023-01-10T02:26:55.785Z,96500.97
2023-01-10T02:29:44.718Z,96503.09
2023-01-10T02:32:42.136Z,96506.56
2023-01-10T02:35:37.729Z,96507.06
2023-01-10T02:38:32.239Z,96513.38
2023-01-10T02:41:33.926Z,96519.09
2023-01-10T02:44:11.216Z,96512.56
2023-01-10T02:46:39.796Z,96523.28
2023-01-10T02:49:07.205Z,96533.25
2023-01-10T02:51:34.614Z,96534.03
2023-01-10T02:54:14.849Z,96538.22
2023-01-10T02:57:47.933Z,96537.97
2023-01-10T03:00:43.721Z,96545.06
2023-01-10T03:03:38.449Z,96544.94
2023-01-10T03:06:33.645Z,96547.72
2023-01-10T03:09:31.560Z,96551.75
2023-01-10T03:12:37.934Z,96562.53
2023-01-10T03:15:08.590Z,96554.81
2023-01-10T03:17:39.150Z,96562.44
2023-01-10T03:20:08.989Z,96566.31
2023-01-10T03:22:39.751Z,96573.97
2023-01-10T03:25:09.529Z,96575.53
2023-01-10T03:28:03.835Z,96575.06
2023-01-10T03:31:10.858Z,96580.97
2023-01-10T03:33:38.707Z,96583.91
2023-01-10T03:36:31.254Z,96584.53
2023-01-10T03:39:25.197Z,96593.28
2023-01-10T03:42:50.479Z,96594.19
2023-01-10T03:45:26.990Z,96594.13
2023-01-10T03:47:58.486Z,96589.38
2023-01-10T03:50:28.239Z,96599.38
2023-01-10T03:52:57.014Z,96600.22
2023-01-10T03:55:28.900Z,96602.88
2023-01-10T03:57:56.267Z,96608.41
2023-01-10T04:00:24.493Z,96606.03
2023-01-10T04:02:51.819Z,96606.81
2023-01-10T04:05:19.148Z,96612.19
2023-01-10T04:07:47.834Z,96610.09
2023-01-10T04:10:15.650Z,96619.53
2023-01-10T04:12:43.273Z,96608.25
2023-01-10T04:15:10.940Z,96620.84
2023-01-10T04:17:38.159Z,96623.72
2023-01-10T04:20:06.159Z,96630.00
2023-01-10T04:22:33.380Z,96624.25
2023-01-10T04:25:00.556Z,96638.97
2023-01-10T04:27:27.750Z,96639.25
2023-01-10T04:29:55.085Z,96646.91
2023-01-10T04:32:22.289Z,96647.75
2023-01-10T04:34:49.728Z,96645.16
2023-01-10T04:37:16.928Z,96650.69
2023-01-10T04:39:44.352Z,96652.25
2023-01-10T04:42:11.706Z,96661.75
2023-01-10T04:44:38.962Z,96657.81
2023-01-10T04:47:06.223Z,96668.25
2023-01-10T04:49:33.337Z,96669.09
2023-01-10T04:52:00.744Z,96678.00
2023-01-10T04:54:27.989Z,96689.72
2023-01-10T04:56:55.248Z,96691.72
2023-01-10T04:59:22.615Z,96695.19
2023-01-10T05:01:50.043Z,96704.63
2023-01-10T05:04:18.106Z,96706.72
2023-01-10T05:06:46.678Z,96714.41
2023-01-10T05:09:13.988Z,96716.53
2023-01-10T05:11:41.495Z,96711.81
2023-01-10T05:14:09.163Z,96724.63
2023-01-10T05:16:36.697Z,96717.78
2023-01-10T05:19:04.259Z,96719.41
2023-01-10T05:21:31.505Z,96720.59
2023-01-10T05:23:58.678Z,96724.53
2023-01-10T05:26:25.984Z,96734.09
2023-01-10T05:28:53.171Z,96730.44
2023-01-10T05:31:20.836Z,96729.97
2023-01-10T05:33:50.575Z,96737.41
2023-01-10T05:36:19.212Z,96741.63
2023-01-10T05:38:47.041Z,96749.22
2023-01-10T05:41:14.480Z,96749.47
2023-01-10T05:43:41.733Z,96757.25
2023-01-10T05:46:09.103Z,96751.81
2023-01-10T05:48:36.774Z,96763.13
2023-01-10T05:51:04.607Z,96762.63
2023-01-10T05:53:31.847Z,96768.38
2023-01-10T05:56:02.417Z,96765.63
2023-01-10T05:58:30.194Z,96768.38
2023-01-10T06:00:58.487Z,96780.56
2023-01-10T06:03:26.715Z,96782.94
2023-01-10T06:05:55.869Z,96785.41
2023-01-10T06:08:24.237Z,96790.09
2023-01-10T06:10:52.283Z,96790.53
2023-01-10T06:13:19.705Z,96791.38
2023-01-10T06:15:47.611Z,96807.09
2023-01-10T06:18:15.243Z,96810.81
2023-01-10T06:20:44.195Z,96813.78
2023-01-10T06:23:11.489Z,96811.94
2023-01-10T06:25:41.735Z,96812.06
2023-01-10T06:28:11.517Z,96827.16
2023-01-10T06:30:42.026Z,96826.06
2023-01-10T06:33:10.834Z,96827.75
2023-01-10T06:35:38.199Z,96827.03
2023-01-10T06:38:05.397Z,96829.22
2023-01-10T06:40:32.744Z,96831.81
2023-01-10T06:43:00.341Z,96837.53
2023-01-10T06:45:27.693Z,96832.03
2023-01-10T06:47:54.895Z,96843.38
2023-01-10T06:50:22.648Z,96846.44
2023-01-10T06:53:01.635Z,96852.09
2023-01-10T06:55:30.965Z,96857.00
2023-01-10T06:58:03.720Z,96862.72
2023-01-10T07:00:32.505Z,96862.53
2023-01-10T07:03:02.109Z,96869.47
2023-01-10T07:05:30.799Z,96878.63
2023-01-10T07:07:59.021Z,96880.63
2023-01-10T07:10:26.951Z,96877.06
2023-01-10T07:12:58.742Z,96886.16
2023-01-10T07:15:27.713Z,96890.72
2023-01-10T07:17:58.649Z,96899.22
2023-01-10T07:20:27.219Z,96905.66
2023-01-10T07:23:01.129Z,96909.81
2023-01-10T07:25:30.584Z,96902.00
2023-01-10T07:27:58.440Z,96903.78
2023-01-10T07:30:26.202Z,96904.03
2023-01-10T07:32:58.220Z,96898.66
2023-01-10T07:35:26.210Z,96905.25
2023-01-10T07:37:53.497Z,96910.44
2023-01-10T07:40:20.755Z,96911.66
2023-01-10T07:42:48.060Z,96922.19
2023-01-10T07:45:15.447Z,96930.88
2023-01-10T07:47:42.837Z,96931.16
2023-01-10T07:50:10.801Z,96930.06
2023-01-10T07:52:38.555Z,96937.41
2023-01-10T07:55:06.605Z,96941.56
2023-01-10T07:57:33.840Z,96944.53
2023-01-10T08:00:01.141Z,96953.31
2023-01-10T08:02:28.454Z,96947.69
2023-01-10T08:04:55.757Z,96946.91
2023-01-10T08:07:23.125Z,96937.09
2023-01-10T08:09:50.377Z,96943.91
2023-01-10T08:12:17.593Z,96946.16
2023-01-10T08:14:44.897Z,96939.44
2023-01-10T08:17:12.316Z,96938.81
2023-01-10T08:19:39.578Z,96949.84
2023-01-10T08:22:06.797Z,96952.66
2023-01-10T08:24:34.048Z,96961.34
2023-01-10T08:27:02.537Z,96959.28
2023-01-10T08:29:30.207Z,96951.91
2023-01-10T08:31:57.511Z,96958.50
2023-01-10T08:34:25.951Z,96981.44
2023-01-10T08:36:54.922Z,97006.59
2023-01-10T08:39:22.773Z,97021.09
2023-01-10T08:41:50.300Z,97018.25
2023-01-10T08:44:17.605Z,97016.72
2023-01-10T08:46:45.757Z,97029.97
2023-01-10T08:49:13.087Z,97014.41
2023-01-10T08:51:40.467Z,97022.94
2023-01-10T08:54:07.878Z,97025.13
2023-01-10T08:56:37.384Z,97034.09
2023-01-10T08:59:04.599Z,97046.22
2023-01-10T09:01:32.007Z,97047.72
2023-01-10T09:03:59.872Z,97052.22
2023-01-10T09:06:27.432Z,97056.84
2023-01-10T09:08:54.632Z,97075.09
2023-01-10T09:11:21.835Z,97070.41
2023-01-10T09:13:52.207Z,97070.28
2023-01-10T09:16:19.527Z,97067.78
2023-01-10T09:18:47.182Z,97077.09
2023-01-10T09:21:14.539Z,97084.66
2023-01-10T09:23:43.615Z,97090.75
2023-01-10T09:26:10.976Z,97097.81
2023-01-10T09:28:38.158Z,97092.78
2023-01-10T09:31:08.826Z,97095.13
2023-01-10T09:33:46.126Z,97096.09
2023-01-10T09:36:15.759Z,97102.09
2023-01-10T09:38:44.047Z,97098.84
2023-01-10T09:41:55.458Z,97096.84
2023-01-10T09:45:21.144Z,97105.66
2023-01-10T09:48:53.954Z,97106.63
2023-01-10T09:51:49.134Z,97117.94
2023-01-10T09:54:31.858Z,97118.22
2023-01-10T09:57:01.312Z,97121.13
2023-01-10T09:59:43.055Z,97119.97
2023-01-10T10:02:36.787Z,97120.41
2023-01-10T10:05:18.937Z,97124.06
2023-01-10T10:07:52.342Z,97117.34
2023-01-10T10:10:38.506Z,97118.84
2023-01-10T10:13:27.561Z,97129.59
2023-01-10T10:16:38.860Z,97131.78
2023-01-10T10:19:24.460Z,97126.50
2023-01-10T10:22:19.052Z,97139.00
2023-01-10T10:25:09.025Z,97142.41
2023-01-10T10:28:02.326Z,97144.56
2023-01-10T10:30:47.628Z,97146.28
2023-01-10T10:33:38.293Z,97143.44
2023-01-10T10:36:30.717Z,97152.66
2023-01-10T10:39:01.388Z,97154.56
2023-01-10T10:41:38.359Z,97163.47
2023-01-10T10:44:37.250Z,97165.50
2023-01-10T10:47:21.826Z,97172.81
2023-01-10T10:50:21.415Z,97179.97
2023-01-10T10:52:49.015Z,97181.97
2023-01-10T10:55:29.332Z,97183.00
2023-01-10T10:58:00.578Z,97178.59
2023-01-10T11:00:29.760Z,97190.28
2023-01-10T11:03:26.244Z,97185.94
2023-01-10T11:05:53.907Z,97183.31
2023-01-10T11:08:22.983Z,97196.81
2023-01-10T11:10:57.666Z,97190.22
2023-01-10T11:13:34.112Z,97196.81
2023-01-10T11:16:05.569Z,97202.53
2023-01-10T11:18:34.082Z,97201.44
2023-01-10T11:21:05.503Z,97199.34
2023-01-10T11:24:05.617Z,97217.84
2023-01-10T11:26:40.338Z,97212.75
2023-01-10T11:29:16.633Z,97212.19
2023-01-10T11:31:45.384Z,97212.28
2023-01-10T11:34:24.934Z,97220.22
2023-01-10T11:37:01.907Z,97221.81
2023-01-10T11:39:31.584Z,97226.53
2023-01-10T11:42:31.061Z,97226.00
2023-01-10T11:45:18.186Z,97225.38
2023-01-10T11:48:34.245Z,97229.81
2023-01-10T11:51:29.691Z,97235.81
2023-01-10T11:54:06.819Z,97229.63
2023-01-10T11:56:40.048Z,97241.91
2023-01-10T11:59:18.506Z,97244.47
2023-01-10T12:01:54.133Z,97252.13
2023-01-10T12:04:23.201Z,97258.56
2023-01-10T12:06:54.902Z,97261.16
2023-01-10T12:09:44.527Z,97254.63
2023-01-10T12:12:28.769Z,97262.50
2023-01-10T12:14:58.955Z,97262.84
2023-01-10T12:17:36.693Z,97268.16
2023-01-10T12:20:13.008Z,97268.91
2023-01-10T12:22:47.521Z,97270.22
2023-01-10T12:25:26.058Z,97272.59
2023-01-10T12:27:56.893Z,97279.03
2023-01-10T12:30:35.017Z,97282.56
2023-01-10T12:33:23.157Z,97279.78
2023-01-10T12:36:21.086Z,97291.06
2023-01-10T12:39:08.086Z,97296.03
2023-01-10T12:42:00.589Z,97289.63
2023-01-10T12:44:45.890Z,97295.34
2023-01-10T12:47:25.427Z,97305.22
2023-01-10T12:50:21.412Z,97291.59
2023-01-10T12:53:13.480Z,97300.19
2023-01-10T12:55:45.547Z,97294.41
2023-01-10T12:58:44.121Z,97294.94
2023-01-10T13:01:18.141Z,97291.38
2023-01-10T13:03:49.755Z,97296.63
2023-01-10T13:06:36.030Z,97294.56
2023-01-10T13:09:20.280Z,97300.19
2023-01-10T13:11:58.959Z,97307.75
2023-01-10T13:14:37.765Z,97316.88
2023-01-10T13:17:33.858Z,97324.59
2023-01-10T13:21:14.767Z,97327.97
2023-01-10T13:23:52.141Z,97333.19
2023-01-10T13:26:19.772Z,97324.59
2023-01-10T13:29:01.350Z,97342.88
2023-01-10T13:31:34.275Z,97346.22
2023-01-10T13:34:06.209Z,97348.28
2023-01-10T13:36:40.949Z,97353.75
2023-01-10T13:39:36.749Z,97351.94
2023-01-10T13:42:22.059Z,97352.97
2023-01-10T13:45:01.565Z,97351.63
2023-01-10T13:47:40.713Z,97359.59
2023-01-10T13:50:51.237Z,97357.56
2023-01-10T13:53:38.349Z,97362.59
2023-01-10T13:56:28.255Z,97366.63
2023-01-10T13:59:14.242Z,97370.00
2023-01-10T14:02:01.309Z,97374.25
2023-01-10T14:04:56.418Z,97380.66
2023-01-10T14:07:46.271Z,97381.00
2023-01-10T14:10:32.536Z,97392.84
2023-01-10T14:13:22.636Z,97387.78
2023-01-10T14:15:50.160Z,97392.63
2023-01-10T14:18:39.429Z,97388.63
2023-01-10T14:21:21.965Z,97386.09
2023-01-10T14:23:53.359Z,97393.88
2023-01-10T14:26:39.006Z,97389.97
2023-01-10T14:29:12.903Z,97383.59
2023-01-10T14:31:47.278Z,97400.75
2023-01-10T14:34:30.937Z,97397.84
2023-01-10T14:36:59.929Z,97408.25
2023-01-10T14:39:29.572Z,97410.19
2023-01-10T14:42:01.670Z,97415.00
2023-01-10T14:44:42.673Z,97405.84
2023-01-10T14:47:34.942Z,97410.78
2023-01-10T14:50:06.244Z,97410.50
2023-01-10T14:52:33.933Z,97419.50
2023-01-10T14:55:16.695Z,97427.41
2023-01-10T14:57:57.918Z,97426.16
2023-01-10T15:00:28.161Z,97416.34
2023-01-10T15:02:56.169Z,97415.47
2023-01-10T15:05:26.948Z,97418.41
2023-01-10T15:07:55.706Z,97418.63
2023-01-10T15:10:32.956Z,97433.47
2023-01-10T15:13:05.646Z,97423.88
2023-01-10T15:15:38.995Z,97436.19
2023-01-10T15:18:34.113Z,97441.84
2023-01-10T15:21:02.287Z,97444.66
2023-01-10T15:23:38.993Z,97453.19
2023-01-10T15:26:27.852Z,97444.00
2023-01-10T15:29:23.524Z,97457.72
2023-01-10T15:31:57.420Z,97464.00
2023-01-10T15:34:30.155Z,97463.47
2023-01-10T15:37:01.877Z,97466.53
2023-01-10T15:39:40.825Z,97474.72
2023-01-10T15:42:11.693Z,97474.50
2023-01-10T15:44:46.037Z,97480.53
2023-01-10T15:47:35.146Z,97483.91
2023-01-10T15:50:17.845Z,97485.31
2023-01-10T15:53:14.463Z,97493.44
2023-01-10T15:55:55.758Z,97496.94
2023-01-10T15:58:38.240Z,97491.59
2023-01-10T16:01:06.034Z,97487.91
2023-01-10T16:03:44.043Z,97495.78
2023-01-10T16:06:31.103Z,97486.66
2023-01-10T16:09:03.364Z,97493.06
2023-01-10T16:12:09.260Z,97499.91
2023-01-10T16:14:37.923Z,97498.41
2023-01-10T16:17:07.273Z,97509.69
2023-01-10T16:19:34.792Z,97505.22
2023-01-10T16:22:02.311Z,97511.66
2023-01-10T16:24:34.238Z,97510.06
2023-01-10T16:27:06.211Z,97502.41
2023-01-10T16:29:34.300Z,97507.78
2023-01-10T16:32:01.617Z,97515.38
2023-01-10T16:34:28.989Z,97523.63
2023-01-10T16:36:56.264Z,97535.25
2023-01-10T16:39:24.020Z,97535.94
2023-01-10T16:42:09.941Z,97541.97
2023-01-10T16:44:37.219Z,97546.84
2023-01-10T16:47:06.935Z,97550.06
2023-01-10T16:49:34.515Z,97559.16
2023-01-10T16:52:03.166Z,97557.88
2023-01-10T16:54:31.155Z,97561.75
2023-01-10T16:56:58.406Z,97564.16
2023-01-10T16:59:25.884Z,97573.16
2023-01-10T17:01:57.326Z,97580.25
2023-01-10T17:04:30.102Z,97579.34
2023-01-10T17:06:57.887Z,97596.09
2023-01-10T17:09:31.174Z,97597.25
2023-01-10T17:12:05.903Z,97598.72
2023-01-10T17:14:36.844Z,97595.78
2023-01-10T17:17:05.360Z,97589.81
2023-01-10T17:19:32.868Z,97593.13
2023-01-10T17:22:00.574Z,97608.03
2023-01-10T17:24:29.845Z,97609.00
2023-01-10T17:26:57.765Z,97603.41
2023-01-10T17:29:25.311Z,97594.63
2023-01-10T17:31:52.727Z,97607.94
2023-01-10T17:34:20.447Z,97615.25
2023-01-10T17:36:48.057Z,97625.38
2023-01-10T17:39:15.588Z,97630.53
2023-01-10T17:41:43.704Z,97632.13
2023-01-10T17:44:11.180Z,97636.00
2023-01-10T17:46:39.944Z,97636.34
2023-01-10T17:49:07.635Z,97643.72
2023-01-10T17:51:35.404Z,97640.88
2023-01-10T17:54:02.804Z,97653.53
2023-01-10T17:56:30.585Z,97646.13
2023-01-10T17:58:57.958Z,97644.63
2023-01-10T18:01:26.258Z,97652.84
2023-01-10T18:03:54.545Z,97646.25
2023-01-10T18:06:24.511Z,97657.53
2023-01-10T18:08:53.322Z,97653.66
2023-01-10T18:11:22.855Z,97668.97
2023-01-10T18:13:50.448Z,97667.44
2023-01-10T18:16:17.804Z,97671.50
2023-01-10T18:18:45.286Z,97671.28
2023-01-10T18:21:17.827Z,97668.44
2023-01-10T18:23:46.922Z,97662.94
2023-01-10T18:26:14.734Z,97655.44
2023-01-10T18:28:44.579Z,97656.78
2023-01-10T18:31:14.180Z,97659.13
2023-01-10T18:33:41.720Z,97657.50
2023-01-10T18:36:18.288Z,97655.44
2023-01-10T18:38:46.430Z,97665.56
2023-01-10T18:41:15.346Z,97662.69
2023-01-10T18:43:42.633Z,97659.88
2023-01-10T18:46:20.294Z,97663.72
2023-01-10T18:48:50.220Z,97668.03
2023-01-10T18:51:19.273Z,97661.00
2023-01-10T18:53:47.707Z,97665.28
2023-01-10T18:56:16.195Z,97666.34
2023-01-10T18:58:43.481Z,97666.72
2023-01-10T19:01:18.278Z,97659.44
2023-01-10T19:03:47.004Z,97665.13
2023-01-10T19:06:17.286Z,97671.25
2023-01-10T19:08:46.556Z,97672.09
2023-01-10T19:11:16.257Z,97674.28
2023-01-10T19:13:46.098Z,97671.75
2023-01-10T19:16:19.324Z,97679.16
2023-01-10T19:18:59.473Z,97680.34
2023-01-10T19:21:30.353Z,97682.22
2023-01-10T19:24:01.347Z,97691.47
2023-01-10T19:26:28.705Z,97691.41
2023-01-10T19:28:56.013Z,97696.69
2023-01-10T19:31:27.325Z,97691.38
2023-01-10T19:33:58.011Z,97694.44
2023-01-10T19:36:26.607Z,97689.84
2023-01-10T19:38:59.052Z,97695.00
2023-01-10T19:41:28.734Z,97699.44
2023-01-10T19:44:01.704Z,97699.66
2023-01-10T19:46:34.173Z,97700.53
2023-01-10T19:49:03.390Z,97700.16
2023-01-10T19:51:30.771Z,97696.28
2023-01-10T19:53:58.091Z,97710.00
2023-01-10T19:56:25.551Z,97697.44
2023-01-10T19:58:54.943Z,97705.00
2023-01-10T20:01:26.098Z,97705.22
2023-01-10T20:03:57.184Z,97705.66
2023-01-10T20:06:26.948Z,97707.91
2023-01-10T20:08:55.260Z,97710.38
2023-01-10T20:11:25.474Z,97711.41
2023-01-10T20:13:53.891Z,97711.97
2023-01-10T20:16:23.653Z,97718.72
2023-01-10T20:18:52.099Z,97717.22
2023-01-10T20:21:19.944Z,97717.22
2023-01-10T20:23:47.865Z,97719.94
2023-01-10T20:26:22.426Z,97718.53
2023-01-10T20:28:50.837Z,97714.44
2023-01-10T20:31:22.935Z,97715.34
2023-01-10T20:33:51.158Z,97708.06
2023-01-10T20:36:23.831Z,97714.38
2023-01-10T20:38:51.931Z,97713.28
2023-01-10T20:41:25.852Z,97716.31
2023-01-10T20:43:56.311Z,97711.56
2023-01-10T20:46:27.387Z,97711.41
2023-01-10T20:48:56.755Z,97722.03
2023-01-10T20:51:28.351Z,97714.59
2023-01-10T20:53:56.328Z,97717.69
2023-01-10T20:56:27.638Z,97718.13
2023-01-10T20:58:56.006Z,97725.94
2023-01-10T21:01:34.068Z,97722.25
2023-01-10T21:04:05.874Z,97716.94
2023-01-10T21:06:34.897Z,97718.63
2023-01-10T21:09:03.992Z,97720.66
2023-01-10T21:11:31.298Z,97720.72
2023-01-10T21:13:59.067Z,97730.16
2023-01-10T21:16:26.707Z,97719.47
2023-01-10T21:18:54.421Z,97723.75
2023-01-10T21:21:25.225Z,97715.72
2023-01-10T21:23:55.060Z,97729.81
2023-01-10T21:26:22.780Z,97732.09
2023-01-10T21:28:50.321Z,97730.84
2023-01-10T21:31:22.192Z,97729.66
2023-01-10T21:33:50.137Z,97739.28
2023-01-10T21:36:17.985Z,97735.28
2023-01-10T21:38:45.729Z,97742.50
2023-01-10T21:41:37.567Z,97743.50
2023-01-10T21:44:06.418Z,97749.88
2023-01-10T21:46:34.367Z,97742.28
2023-01-10T21:49:02.858Z,97746.28
2023-01-10T21:51:30.342Z,97746.69
2023-01-10T21:53:58.028Z,97751.13
2023-01-10T21:56:25.768Z,97752.75
2023-01-10T21:58:52.990Z,97749.50
2023-01-10T22:01:20.511Z,97752.34
2023-01-10T22:03:47.964Z,97746.28
2023-01-10T22:06:15.467Z,97742.69
2023-01-10T22:08:42.763Z,97747.09
2023-01-10T22:11:11.149Z,97744.41
2023-01-10T22:13:39.325Z,97741.84
2023-01-10T22:16:07.268Z,97739.38
2023-01-10T22:18:34.548Z,97745.22
2023-01-10T22:21:01.944Z,97744.13
2023-01-10T22:23:30.967Z,97743.47
2023-01-10T22:26:07.076Z,97741.16
2023-01-10T22:28:34.515Z,97741.06
2023-01-10T22:31:02.250Z,97746.41
2023-01-10T22:33:37.886Z,97744.41
2023-01-10T22:36:12.542Z,97737.72
2023-01-10T22:38:41.658Z,97744.34
2023-01-10T22:41:15.569Z,97744.06
2023-01-10T22:43:44.534Z,97741.66
2023-01-10T22:46:15.845Z,97734.69
2023-01-10T22:48:44.033Z,97732.06
2023-01-10T22:51:12.860Z,97723.91
2023-01-10T22:53:40.152Z,97731.66
2023-01-10T22:56:13.055Z,97736.00
2023-01-10T22:58:42.856Z,97730.53
2023-01-10T23:01:10.208Z,97726.03
2023-01-10T23:03:37.704Z,97728.38
2023-01-10T23:06:05.307Z,97736.44
2023-01-10T23:08:34.490Z,97733.75
2023-01-10T23:11:02.059Z,97740.16
2023-01-10T23:13:30.969Z,97741.75
2023-01-10T23:16:06.446Z,97741.09
2023-01-10T23:18:35.092Z,97743.19
2023-01-10T23:21:03.163Z,97741.97
2023-01-10T23:23:30.540Z,97739.19
2023-01-10T23:26:02.853Z,97740.22
2023-01-10T23:28:49.272Z,97744.06
2023-01-10T23:31:22.848Z,97742.84
2023-01-10T23:33:51.379Z,97734.69
2023-01-10T23:36:22.105Z,97733.44
2023-01-10T23:38:50.065Z,97736.38
2023-01-10T23:41:21.242Z,97734.91
2023-01-10T23:43:50.180Z,97731.88
2023-01-10T23:46:17.958Z,97729.94
2023-01-10T23:48:46.573Z,97732.50
2023-01-10T23:51:14.750Z,97724.06
2023-01-10T23:53:42.289Z,97730.03
2023-01-10T23:56:12.997Z,97724.06
2023-01-10T23:58:41.034Z,97723.25
